< < Back
Terminal Aerodrome Forecast


Current Version              Previous Versions:   1  2  3  4  5  6  7  8  9  

Terminal Aerodrome Forecast

182
FTUS42 KJAX 290501 AAC
TAFSSI
TAF AMD
KSSI 290501Z 2905/2924 30008KT P6SM VCTS SCT025CB BKN060 OVC100
      TEMPO 2905/2906 VRB10KT 2SM TSRA BKN015CB
     FM290800 24005KT P6SM SCT250
     FM291700 18008KT P6SM VCTS FEW030CB SCT250=



Latest METAR

361
SAUS70 KWBC 290500 RRS
MTRSSI
METAR KSSI 290453Z AUTO VRB04KT 1 3/4SM +TSRA BR SCT009 BKN014 OVC030
24/23 A2999 RMK AO2 WSHFT 0350 LTG DSNT NE AND E AND W RAB40
TSB19 SLP156 P0031 T02390233 403220233


USA.gov is the U.S. government's official web portal to all federal, state and local government web resources and services.